createdAt,value
2018-06-28T00:00:31.704Z,3.80
2018-06-28T00:03:00.687Z,4.00
2018-06-28T00:05:29.736Z,3.60
2018-06-28T00:07:58.738Z,3.37
2018-06-28T00:10:27.704Z,3.50
2018-06-28T00:12:56.790Z,3.87
2018-06-28T00:15:25.782Z,3.73
2018-06-28T00:17:54.778Z,3.60
2018-06-28T00:20:23.796Z,3.70
2018-06-28T00:22:52.780Z,3.60
2018-06-28T00:25:21.782Z,3.50
2018-06-28T00:27:50.737Z,4.30
2018-06-28T00:30:19.733Z,3.80
2018-06-28T00:32:48.547Z,3.77
2018-06-28T00:35:17.474Z,3.67
2018-06-28T00:37:46.503Z,3.43
2018-06-28T00:40:15.453Z,3.50
2018-06-28T00:42:44.482Z,3.57
2018-06-28T00:45:13.466Z,3.60
2018-06-28T00:47:42.480Z,3.47
2018-06-28T00:50:11.166Z,3.30
2018-06-28T00:52:40.189Z,3.60
2018-06-28T00:55:09.441Z,3.97
2018-06-28T00:57:38.452Z,3.53
2018-06-28T01:00:07.436Z,3.53
2018-06-28T01:02:36.473Z,3.43
2018-06-28T01:05:05.713Z,4.10
2018-06-28T01:07:34.717Z,3.60
2018-06-28T01:10:03.843Z,3.43
2018-06-28T01:12:32.828Z,3.67
2018-06-28T01:15:01.947Z,3.57
2018-06-28T01:17:30.997Z,3.90
2018-06-28T01:19:59.977Z,3.60
2018-06-28T01:22:29.005Z,3.67
2018-06-28T01:24:58.093Z,3.37
2018-06-28T01:27:26.853Z,3.70
2018-06-28T01:29:55.473Z,3.90
2018-06-28T01:32:24.434Z,3.90
2018-06-28T01:34:53.393Z,3.60
2018-06-28T01:37:22.405Z,3.50
2018-06-28T01:39:51.845Z,4.00
2018-06-28T01:43:44.225Z,3.93
2018-06-28T01:46:13.409Z,4.60
2018-06-28T01:48:42.518Z,3.50
2018-06-28T01:51:11.498Z,3.53
2018-06-28T01:53:40.528Z,3.90
2018-06-28T01:56:09.565Z,4.17
2018-06-28T01:58:38.564Z,4.47
2018-06-28T02:01:07.844Z,4.23
2018-06-28T02:03:36.838Z,3.93
2018-06-28T02:06:05.886Z,4.13
2018-06-28T02:08:34.949Z,4.30
2018-06-28T02:11:03.911Z,4.20
2018-06-28T02:13:32.884Z,4.33
2018-06-28T02:16:01.954Z,4.40
2018-06-28T02:18:30.978Z,4.30
2018-06-28T02:20:59.950Z,4.37
2018-06-28T02:23:28.920Z,4.57
2018-06-28T02:25:57.894Z,4.40
2018-06-28T02:28:26.620Z,4.83
2018-06-28T02:30:55.502Z,4.53
2018-06-28T02:33:24.461Z,4.47
2018-06-28T02:35:53.443Z,4.33
2018-06-28T02:38:22.462Z,4.67
2018-06-28T02:40:51.478Z,5.10
2018-06-28T02:43:20.443Z,4.90
2018-06-28T02:45:49.427Z,4.27
2018-06-28T02:48:18.463Z,4.57
2018-06-28T02:50:47.450Z,5.13
2018-06-28T02:53:16.418Z,4.73
2018-06-28T02:55:45.403Z,5.20
2018-06-28T02:58:14.211Z,5.03
2018-06-28T03:00:43.102Z,4.73
2018-06-28T03:03:12.126Z,4.60
2018-06-28T03:05:41.152Z,4.97
2018-06-28T03:08:10.196Z,4.80
2018-06-28T03:10:39.190Z,5.10
2018-06-28T03:13:08.140Z,4.80
2018-06-28T03:15:37.125Z,5.13
2018-06-28T03:18:06.138Z,4.70
2018-06-28T03:20:34.855Z,4.83
2018-06-28T03:23:03.826Z,5.27
2018-06-28T03:25:32.808Z,5.60
2018-06-28T03:28:01.884Z,5.00
2018-06-28T03:30:30.892Z,5.60
2018-06-28T03:33:00.014Z,5.73
2018-06-28T03:35:29.030Z,5.47
2018-06-28T03:37:58.279Z,5.80
2018-06-28T03:40:27.198Z,5.90
2018-06-28T03:42:56.166Z,5.80
2018-06-28T03:45:25.124Z,5.63
2018-06-28T03:47:54.162Z,6.00
2018-06-28T03:50:23.182Z,5.97
2018-06-28T03:52:52.278Z,6.23
2018-06-28T03:55:21.272Z,5.93
2018-06-28T03:57:50.296Z,6.27
2018-06-28T04:00:19.286Z,6.83
2018-06-28T04:02:48.297Z,6.60
2018-06-28T04:05:17.306Z,6.30
2018-06-28T04:07:46.322Z,6.63
2018-06-28T04:10:15.329Z,6.37
2018-06-28T04:12:44.428Z,6.67
2018-06-28T04:15:13.728Z,6.10
2018-06-28T04:17:42.954Z,6.53
2018-06-28T04:20:12.067Z,6.67
2018-06-28T04:22:41.082Z,7.37
2018-06-28T04:25:10.076Z,7.13
2018-06-28T04:27:39.056Z,6.67
2018-06-28T04:30:08.101Z,6.87
2018-06-28T04:32:37.105Z,7.30
2018-06-28T04:35:06.067Z,6.67
2018-06-28T04:37:35.064Z,7.70
2018-06-28T04:40:04.157Z,7.23
2018-06-28T04:42:32.853Z,7.37
2018-06-28T04:45:01.722Z,7.13
2018-06-28T04:47:30.473Z,7.40
2018-06-28T04:49:59.413Z,6.93
2018-06-28T04:52:28.385Z,7.57
2018-06-28T04:54:57.383Z,7.40
2018-06-28T04:57:26.413Z,7.33
2018-06-28T04:59:55.429Z,7.57
2018-06-28T05:02:24.549Z,7.40
2018-06-28T05:04:53.657Z,6.80
2018-06-28T05:07:22.961Z,7.00
2018-06-28T05:09:52.089Z,6.87
2018-06-28T05:12:21.217Z,6.87
2018-06-28T05:14:50.775Z,6.53
2018-06-28T05:17:19.859Z,6.27
2018-06-28T05:19:48.904Z,6.57
2018-06-28T05:22:17.935Z,6.90
2018-06-28T05:24:46.899Z,6.23
2018-06-28T05:27:15.946Z,6.87
2018-06-28T05:29:45.008Z,6.23
2018-06-28T05:32:13.986Z,6.20
2018-06-28T05:34:43.052Z,6.27
2018-06-28T05:37:12.012Z,6.63
2018-06-28T05:39:41.092Z,6.47
2018-06-28T05:42:10.061Z,6.67
2018-06-28T05:44:39.058Z,5.70
2018-06-28T05:47:08.143Z,6.37
2018-06-28T05:49:37.174Z,6.70
2018-06-28T05:52:06.237Z,6.50
2018-06-28T05:54:35.284Z,6.30
2018-06-28T05:57:04.617Z,6.33
2018-06-28T05:59:33.621Z,6.50
2018-06-28T06:02:02.797Z,6.50
2018-06-28T06:04:31.801Z,6.10
2018-06-28T06:07:00.811Z,7.17
2018-06-28T06:09:29.968Z,6.47
2018-06-28T06:11:58.892Z,6.40
2018-06-28T06:14:27.956Z,6.23
2018-06-28T06:16:57.057Z,6.90
2018-06-28T06:19:26.136Z,6.50
2018-06-28T06:21:55.243Z,6.30
2018-06-28T06:24:24.214Z,6.67
2018-06-28T06:26:53.241Z,6.30
2018-06-28T06:29:22.371Z,6.03
2018-06-28T06:31:51.342Z,6.50
2018-06-28T06:34:20.310Z,6.47
2018-06-28T06:36:49.407Z,6.10
2018-06-28T06:39:18.584Z,6.10
2018-06-28T06:41:47.630Z,6.30
2018-06-28T06:44:16.610Z,5.70
2018-06-28T06:46:45.678Z,5.63
2018-06-28T06:49:14.914Z,6.17
2018-06-28T06:51:43.948Z,5.33
2018-06-28T06:54:13.077Z,5.53
2018-06-28T06:56:42.052Z,5.90
2018-06-28T06:59:11.059Z,5.80
2018-06-28T07:01:40.086Z,5.77
2018-06-28T07:04:09.054Z,5.33
2018-06-28T07:06:38.193Z,5.00
2018-06-28T07:09:10.195Z,5.53
2018-06-28T07:11:39.398Z,5.30
2018-06-28T07:14:08.476Z,5.30
2018-06-28T07:16:37.474Z,4.70
2018-06-28T07:19:06.694Z,4.57
2018-06-28T07:21:35.724Z,4.50
2018-06-28T07:24:04.866Z,5.00
2018-06-28T07:26:34.020Z,4.90
2018-06-28T07:29:03.090Z,4.13
2018-06-28T07:31:32.141Z,4.30
2018-06-28T07:34:01.285Z,4.30
2018-06-28T07:36:30.363Z,4.10
2018-06-28T07:38:59.340Z,4.20
2018-06-28T07:41:28.430Z,4.00
2018-06-28T07:43:57.445Z,4.13
2018-06-28T07:46:26.572Z,4.10
2018-06-28T07:48:56.068Z,3.80
2018-06-28T07:51:25.088Z,3.83
2018-06-28T07:53:54.119Z,4.03
2018-06-28T07:56:23.102Z,3.60
2018-06-28T07:58:52.433Z,3.60
2018-06-28T08:01:21.495Z,3.27
2018-06-28T08:03:50.802Z,3.57
2018-06-28T08:06:19.986Z,3.40
2018-06-28T08:08:49.358Z,3.10
2018-06-28T08:11:18.450Z,3.50
2018-06-28T08:13:47.625Z,3.70
2018-06-28T08:16:16.581Z,3.13
2018-06-28T08:18:45.290Z,3.37
2018-06-28T08:21:14.261Z,3.20
2018-06-28T08:23:43.227Z,3.10
2018-06-28T08:26:12.276Z,3.20
2018-06-28T08:28:41.269Z,2.97
2018-06-28T08:31:10.343Z,3.27
2018-06-28T08:33:39.315Z,3.37
2018-06-28T08:36:08.505Z,3.20
2018-06-28T08:38:37.909Z,3.33
2018-06-28T08:41:06.947Z,3.37
2018-06-28T08:43:35.935Z,3.30
2018-06-28T08:46:05.453Z,3.37
2018-06-28T08:48:34.473Z,3.20
2018-06-28T08:51:03.581Z,3.57
2018-06-28T08:53:32.556Z,3.10
2018-06-28T08:56:01.625Z,3.10
2018-06-28T08:58:30.582Z,3.00
2018-06-28T09:00:59.613Z,3.40
2018-06-28T09:03:28.591Z,3.10
2018-06-28T09:05:57.561Z,2.80
2018-06-28T09:08:26.577Z,3.10
2018-06-28T09:10:55.608Z,2.90
2018-06-28T09:13:24.622Z,3.27
2018-06-28T09:15:53.693Z,2.90
2018-06-28T09:18:22.845Z,2.83
2018-06-28T09:20:51.824Z,2.73
2018-06-28T09:23:20.962Z,2.87
2018-06-28T09:25:49.923Z,2.90
2018-06-28T09:28:19.053Z,2.80
2018-06-28T09:30:48.029Z,2.70
2018-06-28T09:33:17.015Z,2.93
2018-06-28T09:35:46.234Z,2.77
2018-06-28T09:38:15.274Z,3.00
2018-06-28T09:40:44.245Z,2.77
2018-06-28T09:43:13.504Z,2.80
2018-06-28T09:45:42.522Z,2.63
2018-06-28T09:48:11.534Z,2.50
2018-06-28T09:50:40.568Z,2.27
2018-06-28T09:53:09.621Z,2.63
2018-06-28T09:55:38.595Z,2.50
2018-06-28T09:58:07.687Z,3.07
2018-06-28T10:00:42.785Z,2.50
2018-06-28T10:03:12.430Z,2.77
2018-06-28T10:05:41.450Z,2.73
2018-06-28T10:08:11.026Z,2.90
2018-06-28T10:10:40.348Z,3.37
2018-06-28T10:13:09.356Z,2.50
2018-06-28T10:15:38.362Z,2.40
2018-06-28T10:18:07.851Z,2.50
2018-06-28T10:20:36.920Z,2.30
2018-06-28T10:23:05.996Z,2.53
2018-06-28T10:25:35.008Z,2.20
2018-06-28T10:28:03.976Z,2.40
2018-06-28T10:30:32.968Z,2.80
2018-06-28T10:33:02.046Z,2.23
2018-06-28T10:35:31.032Z,2.20
2018-06-28T10:38:00.051Z,2.30
2018-06-28T10:40:29.026Z,2.33
2018-06-28T10:42:58.114Z,2.87
2018-06-28T10:45:27.124Z,2.73
2018-06-28T10:47:56.102Z,2.57
2018-06-28T10:50:25.114Z,2.87
2018-06-28T10:52:54.150Z,3.10
2018-06-28T10:55:23.111Z,3.00
2018-06-28T10:57:52.099Z,2.60
2018-06-28T11:00:20.822Z,3.03
2018-06-28T11:02:49.773Z,2.30
2018-06-28T11:05:18.778Z,2.40
2018-06-28T11:07:47.792Z,2.80
2018-06-28T11:10:16.802Z,2.70
2018-06-28T11:12:45.839Z,2.93
2018-06-28T11:15:14.830Z,3.07
2018-06-28T11:17:44.054Z,2.60
2018-06-28T11:20:12.768Z,2.60
2018-06-28T11:22:41.716Z,2.50
2018-06-28T11:25:10.810Z,2.70
2018-06-28T11:27:39.842Z,2.70
2018-06-28T11:30:08.816Z,2.67
2018-06-28T11:32:37.583Z,2.37
2018-06-28T11:35:06.538Z,2.83
2018-06-28T11:37:35.757Z,2.70
2018-06-28T11:40:04.746Z,2.90
2018-06-28T11:42:34.621Z,2.90
2018-06-28T11:45:03.601Z,2.60
2018-06-28T11:47:32.569Z,2.60
2018-06-28T11:50:01.633Z,2.50
2018-06-28T11:52:30.695Z,2.83
2018-06-28T11:54:59.695Z,2.83
2018-06-28T11:57:28.696Z,2.67
2018-06-28T11:59:57.689Z,2.50
2018-06-28T12:02:26.669Z,2.40
2018-06-28T12:04:55.705Z,2.50
2018-06-28T12:07:26.258Z,2.50
2018-06-28T12:09:55.257Z,2.50
2018-06-28T12:12:24.212Z,2.50
2018-06-28T12:14:53.243Z,2.80
2018-06-28T12:17:22.221Z,2.93
2018-06-28T12:19:51.241Z,2.70
2018-06-28T12:22:20.305Z,2.77
2018-06-28T12:24:49.373Z,2.50
2018-06-28T12:27:18.377Z,2.50
2018-06-28T12:29:47.360Z,2.50
2018-06-28T12:32:16.383Z,3.13
2018-06-28T12:34:45.382Z,2.60
2018-06-28T12:37:14.328Z,2.87
2018-06-28T12:39:43.387Z,2.70
2018-06-28T12:42:12.402Z,2.50
2018-06-28T12:44:41.968Z,2.60
2018-06-28T12:47:55.346Z,2.63
2018-06-28T12:50:24.320Z,2.83
2018-06-28T12:52:55.584Z,2.43
2018-06-28T12:55:25.191Z,3.03
2018-06-28T12:57:55.618Z,2.63
2018-06-28T13:00:24.715Z,2.63
2018-06-28T13:02:53.689Z,2.40
2018-06-28T13:05:22.732Z,2.50
2018-06-28T13:07:51.696Z,2.80
2018-06-28T13:10:20.691Z,2.60
2018-06-28T13:12:49.736Z,2.63
2018-06-28T13:15:18.983Z,2.70
2018-06-28T13:17:47.928Z,2.60
2018-06-28T13:20:16.953Z,2.60
2018-06-28T13:22:45.965Z,3.27
2018-06-28T13:25:14.954Z,2.40
2018-06-28T13:27:43.928Z,2.50
2018-06-28T13:30:12.735Z,2.40
2018-06-28T13:32:41.736Z,2.50
2018-06-28T13:35:10.783Z,2.60
2018-06-28T13:37:39.751Z,2.63
2018-06-28T13:40:08.731Z,2.30
2018-06-28T13:42:37.816Z,2.50
2018-06-28T13:45:06.846Z,2.60
2018-06-28T13:47:35.920Z,2.47
2018-06-28T13:50:04.688Z,2.60
2018-06-28T13:52:33.603Z,2.60
2018-06-28T13:55:02.650Z,2.67
2018-06-28T13:57:31.394Z,2.60
2018-06-28T14:00:00.270Z,2.47
2018-06-28T14:02:29.342Z,2.67
2018-06-28T14:04:58.382Z,2.70
2018-06-28T14:07:27.386Z,2.80
2018-06-28T14:09:56.354Z,2.90
2018-06-28T14:12:25.354Z,2.53
2018-06-28T14:14:54.601Z,2.90
2018-06-28T14:17:23.594Z,2.70
2018-06-28T14:19:52.571Z,3.00
2018-06-28T14:22:21.668Z,2.70
2018-06-28T14:24:50.629Z,2.80
2018-06-28T14:27:19.629Z,2.70
2018-06-28T14:29:48.655Z,2.87
2018-06-28T14:32:17.609Z,3.03
2018-06-28T14:34:46.665Z,3.23
2018-06-28T14:37:15.727Z,2.80
2018-06-28T14:39:44.413Z,3.00
2018-06-28T14:42:13.393Z,2.80
2018-06-28T14:44:42.361Z,2.50
2018-06-28T14:47:11.360Z,2.60
2018-06-28T14:49:40.493Z,2.40
2018-06-28T14:52:09.515Z,2.77
2018-06-28T14:54:38.715Z,2.50
2018-06-28T14:57:07.813Z,2.43
2018-06-28T14:59:36.757Z,3.10
2018-06-28T15:02:06.037Z,2.53
2018-06-28T15:04:35.199Z,2.80
2018-06-28T15:07:04.173Z,2.60
2018-06-28T15:09:32.934Z,2.80
2018-06-28T15:12:01.784Z,2.70
2018-06-28T15:14:30.793Z,2.73
2018-06-28T15:16:59.917Z,2.77
2018-06-28T15:19:28.927Z,2.70
2018-06-28T15:21:57.921Z,2.60
2018-06-28T15:24:27.065Z,2.50
2018-06-28T15:26:56.061Z,2.83
2018-06-28T15:29:25.338Z,2.70
2018-06-28T15:31:54.289Z,2.67
2018-06-28T15:34:23.473Z,2.80
2018-06-28T15:36:52.509Z,2.90
2018-06-28T15:39:21.549Z,2.80
2018-06-28T15:41:50.507Z,3.10
2018-06-28T15:44:19.524Z,2.70
2018-06-28T15:46:48.600Z,2.83
2018-06-28T15:49:17.561Z,2.80
2018-06-28T15:51:46.587Z,2.60
2018-06-28T15:54:15.644Z,2.77
2018-06-28T15:56:44.657Z,2.50
2018-06-28T15:59:13.680Z,2.40
2018-06-28T16:01:42.659Z,2.90
2018-06-28T16:04:11.653Z,2.70
2018-06-28T16:06:40.830Z,2.40
2018-06-28T16:09:10.472Z,2.60
2018-06-28T16:11:39.445Z,2.27
2018-06-28T16:14:08.470Z,2.30
2018-06-28T16:16:37.463Z,2.40
2018-06-28T16:19:06.465Z,2.73
2018-06-28T16:21:35.468Z,2.40
2018-06-28T16:24:04.566Z,2.60
2018-06-28T16:26:33.597Z,2.70
2018-06-28T16:29:02.595Z,2.90
2018-06-28T16:31:31.610Z,2.77
2018-06-28T16:34:03.790Z,3.03
2018-06-28T16:36:32.734Z,2.50
2018-06-28T16:39:01.718Z,2.60
2018-06-28T16:41:30.698Z,2.40
2018-06-28T16:43:59.847Z,2.30
2018-06-28T16:46:29.467Z,2.50
2018-06-28T16:48:58.384Z,2.40
2018-06-28T16:51:27.410Z,2.60
2018-06-28T16:53:56.428Z,2.50
2018-06-28T16:56:25.472Z,2.50
2018-06-28T16:58:54.460Z,2.40
2018-06-28T17:01:23.621Z,2.40
2018-06-28T17:03:52.617Z,2.30
2018-06-28T17:06:21.689Z,2.20
2018-06-28T17:08:50.806Z,2.20
2018-06-28T17:11:19.782Z,2.37
2018-06-28T17:13:48.752Z,2.30
2018-06-28T17:16:17.748Z,2.20
2018-06-28T17:18:46.694Z,2.50
2018-06-28T17:21:15.654Z,2.50
2018-06-28T17:23:44.657Z,2.60
2018-06-28T17:26:13.654Z,2.30
2018-06-28T17:28:42.692Z,2.23
2018-06-28T17:31:12.214Z,2.47
2018-06-28T17:33:41.202Z,2.30
2018-06-28T17:36:10.226Z,2.53
2018-06-28T17:38:39.288Z,2.43
2018-06-28T17:41:08.254Z,2.27
2018-06-28T17:43:37.224Z,2.67
2018-06-28T17:46:06.324Z,2.40
2018-06-28T17:48:35.332Z,2.67
2018-06-28T17:51:04.380Z,2.63
2018-06-28T17:53:33.337Z,2.50
2018-06-28T17:56:02.498Z,2.50
2018-06-28T17:58:31.497Z,2.50
2018-06-28T18:01:00.590Z,2.40
2018-06-28T18:03:29.670Z,2.40
2018-06-28T18:05:58.470Z,2.50
2018-06-28T18:08:27.464Z,2.67
2018-06-28T18:10:56.417Z,2.50
2018-06-28T18:13:25.597Z,2.70
2018-06-28T18:15:54.581Z,2.60
2018-06-28T18:18:23.659Z,2.50
2018-06-28T18:20:52.747Z,2.43
2018-06-28T18:23:21.749Z,2.50
2018-06-28T18:25:50.725Z,2.40
2018-06-28T18:28:19.764Z,2.70
2018-06-28T18:30:48.777Z,2.37
2018-06-28T18:33:17.772Z,2.30
2018-06-28T18:35:46.777Z,2.50
2018-06-28T18:38:15.839Z,2.20
2018-06-28T18:40:44.945Z,2.40
2018-06-28T18:43:13.682Z,2.60
2018-06-28T18:45:42.621Z,2.47
2018-06-28T18:48:11.642Z,2.27
2018-06-28T18:50:40.743Z,2.80
2018-06-28T18:53:09.753Z,2.37
2018-06-28T18:55:38.765Z,2.40
2018-06-28T18:58:07.778Z,2.40
2018-06-28T19:00:36.810Z,2.43
2018-06-28T19:03:05.869Z,2.60
2018-06-28T19:05:34.852Z,2.30
2018-06-28T19:08:03.877Z,2.43
2018-06-28T19:10:39.114Z,2.23
2018-06-28T19:13:08.122Z,2.33
2018-06-28T19:15:42.600Z,2.30
2018-06-28T19:18:11.656Z,2.40
2018-06-28T19:20:41.922Z,2.27
2018-06-28T19:23:16.421Z,2.43
2018-06-28T19:25:45.620Z,2.50
2018-06-28T19:28:14.720Z,2.50
2018-06-28T19:30:49.058Z,2.17
2018-06-28T19:33:18.024Z,2.60
2018-06-28T19:35:47.068Z,2.27
2018-06-28T19:38:16.075Z,2.50
2018-06-28T19:40:50.275Z,2.40
2018-06-28T19:43:19.175Z,2.70
2018-06-28T19:45:48.183Z,2.40
2018-06-28T19:48:17.182Z,2.60
2018-06-28T19:50:51.647Z,2.77
2018-06-28T19:53:20.678Z,2.60
2018-06-28T19:55:49.408Z,3.07
2018-06-28T19:58:18.364Z,2.90
2018-06-28T20:00:52.822Z,3.20
2018-06-28T20:03:27.238Z,2.83
2018-06-28T20:05:56.288Z,3.20
2018-06-28T20:08:25.349Z,3.47
2018-06-28T20:10:54.370Z,2.90
2018-06-28T20:13:29.078Z,3.00
2018-06-28T20:16:03.458Z,3.63
2018-06-28T20:18:37.788Z,3.47
2018-06-28T20:21:06.932Z,2.93
2018-06-28T20:23:35.944Z,3.03
2018-06-28T20:26:10.519Z,2.60
2018-06-28T20:28:44.868Z,3.30
2018-06-28T20:31:19.338Z,3.40
2018-06-28T20:33:53.966Z,2.63
2018-06-28T20:36:22.998Z,2.93
2018-06-28T20:38:51.998Z,2.60
2018-06-28T20:41:20.976Z,3.20
2018-06-28T20:43:50.002Z,2.60
2018-06-28T20:46:19.016Z,2.80
2018-06-28T20:48:48.000Z,2.50
2018-06-28T20:51:16.994Z,2.43
2018-06-28T20:53:46.453Z,2.70
2018-06-28T20:56:15.456Z,2.27
2018-06-28T20:58:46.038Z,2.60
2018-06-28T21:01:15.061Z,2.80
2018-06-28T21:03:44.322Z,3.23
2018-06-28T21:06:13.403Z,2.80
2018-06-28T21:08:42.408Z,2.80
2018-06-28T21:11:11.384Z,2.97
2018-06-28T21:13:40.372Z,2.80
2018-06-28T21:16:09.136Z,2.57
2018-06-28T21:18:38.270Z,2.80
2018-06-28T21:21:07.352Z,2.90
2018-06-28T21:23:36.274Z,2.70
2018-06-28T21:26:05.349Z,2.70
2018-06-28T21:28:34.340Z,3.10
2018-06-28T21:31:03.393Z,3.10
2018-06-28T21:33:32.541Z,2.90
2018-06-28T21:36:01.522Z,2.60
2018-06-28T21:38:30.861Z,3.07
2018-06-28T21:40:59.866Z,2.87
2018-06-28T21:43:28.951Z,2.70
2018-06-28T21:45:57.943Z,2.70
2018-06-28T21:48:26.915Z,3.00
2018-06-28T21:50:55.916Z,2.70
2018-06-28T21:53:24.885Z,2.80
2018-06-28T21:55:53.857Z,3.00
2018-06-28T21:58:22.916Z,3.20
2018-06-28T22:00:51.934Z,2.70
2018-06-28T22:03:20.944Z,3.03
2018-06-28T22:05:49.929Z,2.80
2018-06-28T22:08:18.979Z,2.90
2018-06-28T22:10:47.981Z,2.80
2018-06-28T22:13:16.965Z,2.90
2018-06-28T22:15:46.069Z,2.83
2018-06-28T22:18:15.037Z,3.13
2018-06-28T22:20:44.157Z,3.13
2018-06-28T22:23:13.100Z,2.93
2018-06-28T22:25:42.080Z,2.90
2018-06-28T22:28:11.065Z,2.90
2018-06-28T22:30:40.081Z,2.90
2018-06-28T22:33:09.120Z,2.93
2018-06-28T22:35:38.086Z,3.00
2018-06-28T22:38:07.089Z,2.87
2018-06-28T22:40:36.106Z,3.00
2018-06-28T22:43:05.330Z,3.20
2018-06-28T22:45:34.300Z,3.10
2018-06-28T22:48:03.334Z,3.20
2018-06-28T22:50:32.397Z,3.13
2018-06-28T22:53:01.320Z,2.63
2018-06-28T22:55:30.315Z,3.30
2018-06-28T22:57:59.290Z,3.20
2018-06-28T23:00:29.387Z,3.00
2018-06-28T23:02:58.416Z,3.10
2018-06-28T23:05:27.494Z,2.87
2018-06-28T23:07:56.645Z,3.13
2018-06-28T23:10:26.301Z,3.27
2018-06-28T23:12:55.293Z,3.20
2018-06-28T23:15:24.279Z,3.30
2018-06-28T23:17:53.241Z,3.27
2018-06-28T23:20:22.469Z,3.20
2018-06-28T23:22:52.387Z,3.17
2018-06-28T23:25:21.692Z,3.10
2018-06-28T23:27:51.341Z,3.40
2018-06-28T23:30:20.262Z,3.20
2018-06-28T23:32:49.199Z,3.30
2018-06-28T23:35:18.176Z,3.03
2018-06-28T23:37:47.190Z,3.23
2018-06-28T23:40:16.143Z,3.47
2018-06-28T23:42:45.137Z,3.40
2018-06-28T23:45:14.140Z,3.40
2018-06-28T23:47:43.161Z,3.70
2018-06-28T23:50:12.140Z,3.70
2018-06-28T23:52:41.150Z,3.60
2018-06-28T23:55:10.116Z,3.50
2018-06-28T23:57:39.148Z,3.70
